Terminal Aerodrome Forecast
Issued by NWS Tulsa, OK

Home | Current Version | Previous Version | Text Only | Print | Product List | Glossary On
Versions: 1 2 3 4 5 6 7 8 9 10 11 12 13 14 15 16 17
000
FTUS44 KTSA 161721
TAFFSM
TAF
KFSM 161721Z 1618/1718 05006KT 4SM BR BKN005 OVC025
     FM161900 10005KT P6SM BKN025
     FM162100 23010KT P6SM SCT025 SCT250
     FM170000 26007KT P6SM SCT250=

USA.gov is the U.S. government's official web portal to all federal, state and local government web resources and services.